Time;durP1;ratioP1;P1;durP2;ratioP2;P2;SDS_P1;SDS_P2;PMS_P1;PMS_P2;Temp;Humidity;BMP_temperature;BMP_pressure;BME280_temperature;BME280_humidity;BME280_pressure;Samples;Min_cycle;Max_cycle;Signal;HPM_P1;HPM_P2
2023/03/13 00:01:11;;;;;;;19.33;3.80;;;;;;;8.52;100.00;100260.53;4940080;29;20031;-94
2023/03/13 00:03:36;;;;;;;14.90;3.38;;;;;;;8.53;100.00;100256.22;4937576;29;20038;-93
2023/03/13 00:06:02;;;;;;;26.02;4.00;;;;;;;8.63;100.00;100270.59;4938809;28;20023;-95
2023/03/13 00:08:30;;;;;;;18.20;3.80;;;;;;;8.62;100.00;100261.13;4922689;28;20095;-94
2023/03/13 00:10:56;;;;;;;24.20;4.18;;;;;;;8.52;100.00;100239.03;4939788;28;20027;-94
2023/03/13 00:13:22;;;;;;;27.42;3.70;;;;;;;8.52;100.00;100234.69;4921137;29;20407;-94
2023/03/13 00:15:47;;;;;;;15.25;3.30;;;;;;;8.47;100.00;100213.28;4937272;28;20547;-93
2023/03/13 00:18:13;;;;;;;19.50;3.97;;;;;;;8.53;100.00;100228.63;4920752;29;20038;-94
2023/03/13 00:20:41;;;;;;;17.73;3.47;;;;;;;8.50;100.00;100217.53;4940374;29;20027;-94
2023/03/13 00:23:11;;;;;;;16.45;3.17;;;;;;;8.45;100.00;100207.34;4937327;29;20079;-93
2023/03/13 00:25:36;;;;;;;15.82;3.78;;;;;;;8.50;100.00;100220.97;4936376;28;20031;-93
2023/03/13 00:28:02;;;;;;;15.95;3.88;;;;;;;8.43;100.00;100206.50;4921250;29;20027;-93
2023/03/13 00:30:27;;;;;;;21.15;3.75;;;;;;;8.37;100.00;100196.34;4921126;28;20127;-93
2023/03/13 00:32:53;;;;;;;13.90;3.35;;;;;;;8.43;100.00;100208.25;4940320;29;20046;-93
2023/03/13 00:35:18;;;;;;;18.85;3.60;;;;;;;8.47;100.00;100205.53;4921884;29;20035;-93
2023/03/13 00:37:44;;;;;;;16.83;3.75;;;;;;;8.33;100.00;100180.06;4942577;29;20032;-94
2023/03/13 00:40:10;;;;;;;19.80;4.13;;;;;;;8.35;100.00;100182.59;4940040;28;20035;-93
2023/03/13 00:42:40;;;;;;;13.82;3.20;;;;;;;8.34;100.00;100173.16;4937779;28;20035;-93
2023/03/13 00:45:06;;;;;;;17.13;3.90;;;;;;;8.32;100.00;100175.78;4937492;28;20138;-93
2023/03/13 00:47:31;;;;;;;24.27;3.67;;;;;;;8.38;100.00;100177.38;4923530;29;20177;-93
2023/03/13 00:49:57;;;;;;;20.38;3.60;;;;;;;8.31;100.00;100153.44;4924578;29;20031;-93
2023/03/13 00:52:26;;;;;;;18.17;3.65;;;;;;;8.39;100.00;100173.06;4925801;29;20043;-93
2023/03/13 00:54:52;;;;;;;20.83;3.55;;;;;;;8.40;100.00;100159.25;4942686;28;20066;-93
2023/03/13 00:57:17;;;;;;;18.83;3.65;;;;;;;8.29;100.00;100138.84;4925282;29;20062;-92
2023/03/13 00:59:43;;;;;;;19.80;3.33;;;;;;;8.30;100.00;100135.38;4925212;29;20430;-92
2023/03/13 01:02:08;;;;;;;19.83;4.00;;;;;;;8.33;100.00;100133.59;4942009;29;20030;-92
2023/03/13 01:04:43;;;;;;;18.25;3.83;;;;;;;8.37;100.00;100136.09;4924606;28;20059;-93
2023/03/13 01:07:12;;;;;;;18.65;3.70;;;;;;;8.31;100.00;100114.72;4941459;29;20062;-92
2023/03/13 01:09:40;;;;;;;17.75;3.63;;;;;;;8.29;100.00;100107.84;4940611;29;20026;-93
2023/03/13 01:12:06;;;;;;;14.88;3.63;;;;;;;8.29;100.00;100103.53;4941717;29;20104;-94
2023/03/13 01:14:31;;;;;;;23.65;3.75;;;;;;;8.36;100.00;100106.84;4924179;28;20047;-93
2023/03/13 01:16:56;;;;;;;16.90;3.67;;;;;;;8.41;100.00;100101.53;4942622;29;20031;-92
2023/03/13 01:19:22;;;;;;;16.48;4.05;;;;;;;8.33;100.00;100083.66;4941989;29;20038;-93
2023/03/13 01:21:50;;;;;;;14.18;3.83;;;;;;;8.36;100.00;100077.59;4942462;29;20023;-93
2023/03/13 01:24:18;;;;;;;18.33;4.22;;;;;;;8.45;100.00;100082.50;4942228;29;20036;-94
2023/03/13 01:26:46;;;;;;;15.45;3.78;;;;;;;8.43;100.00;100077.38;4940934;28;20454;-92
2023/03/13 01:29:12;;;;;;;22.30;4.40;;;;;;;8.42;100.00;100062.78;4925449;29;20037;-94
2023/03/13 01:31:38;;;;;;;17.63;4.05;;;;;;;8.47;100.00;100057.47;4941668;28;20511;-94
2023/03/13 01:34:07;;;;;;;15.95;4.30;;;;;;;8.41;100.00;100045.59;4925281;29;20019;-95
2023/03/13 01:36:34;;;;;;;15.38;4.75;;;;;;;8.55;100.00;100060.69;4924738;29;20609;-95
2023/03/13 01:39:03;;;;;;;19.05;4.85;;;;;;;8.55;100.00;100050.38;4926401;29;20202;-95
2023/03/13 01:41:30;;;;;;;19.05;4.75;;;;;;;8.52;100.00;100034.97;4931399;29;20031;-95
2023/03/13 01:43:56;;;;;;;16.92;4.95;;;;;;;8.56;100.00;100034.84;4931299;29;20603;-95
2023/03/13 01:46:26;;;;;;;21.33;5.05;;;;;;;8.58;100.00;100020.16;4926696;29;20162;-96
2023/03/13 01:49:11;;;;;;;14.77;5.20;;;;;;;8.71;100.00;100036.13;4924931;28;20031;-95
2023/03/13 01:51:40;;;;;;;16.48;5.65;;;;;;;8.69;100.00;100007.75;4926226;29;20448;-96
2023/03/13 01:54:15;;;;;;;13.95;5.65;;;;;;;8.75;100.00;100009.31;4944491;29;20488;-95
2023/03/13 01:56:50;;;;;;;14.32;6.32;;;;;;;8.84;100.00;100015.94;4942279;28;20031;-94
2023/03/13 01:59:17;;;;;;;;;;;;;;;8.83;100.00;100015.09;4924878;29;20538;-92
2023/03/13 02:01:45;;;;;;;14.60;5.40;;;;;;;8.81;100.00;99985.84;4941332;29;19922;-91
2023/03/13 02:04:15;;;;;;;18.73;6.03;;;;;;;8.88;100.00;99989.09;4940300;29;20146;-92
2023/03/13 02:06:46;;;;;;;16.90;5.72;;;;;;;8.94;100.00;99978.59;4928121;29;20391;-93
2023/03/13 02:09:15;;;;;;;13.30;5.72;;;;;;;8.89;100.00;99954.63;4939738;29;20032;-92
2023/03/13 02:12:08;;;;;;;15.93;5.82;;;;;;;9.02;100.00;99972.28;4941453;29;20058;-94
2023/03/13 02:14:40;;;;;;;16.75;5.38;;;;;;;9.03;100.00;99961.06;4910358;28;20051;-93
2023/03/13 02:17:06;;;;;;;16.80;5.22;;;;;;;9.08;100.00;99956.56;4940817;28;20604;-92
2023/03/13 02:19:41;;;;;;;17.08;5.25;;;;;;;9.13;100.00;99948.69;4942035;28;20026;-92
2023/03/13 02:22:25;;;;;;;13.73;5.13;;;;;;;9.20;100.00;99936.41;4940560;29;20574;-92
2023/03/13 02:25:05;;;;;;;10.10;4.53;;;;;;;9.25;100.00;99944.84;4941628;28;20032;-92
2023/03/13 02:27:33;;;;;;;12.57;5.35;;;;;;;9.19;100.00;99914.88;4939808;28;20031;-92
2023/03/13 02:29:59;;;;;;;11.50;3.97;;;;;;;9.24;100.00;99902.63;4930473;29;20055;-92
2023/03/13 02:32:28;;;;;;;11.23;4.55;;;;;;;9.31;100.00;99885.19;4941000;29;20023;-93
2023/03/13 02:34:58;;;;;;;12.43;4.60;;;;;;;9.38;100.00;99897.00;4939956;28;20035;-92
2023/03/13 02:37:28;;;;;;;11.90;4.30;;;;;;;9.30;100.00;99876.56;4941880;28;20122;-91
2023/03/13 02:39:54;;;;;;;10.95;4.75;;;;;;;9.36;100.00;99893.63;4941313;29;20035;-92
2023/03/13 02:42:21;;;;;;;13.50;4.82;;;;;;;9.34;100.00;99877.31;4924623;28;20978;-93
2023/03/13 02:44:50;;;;;;;11.20;4.68;;;;;;;9.36;100.00;99875.50;4924539;28;20118;-93
2023/03/13 02:47:21;;;;;;;10.10;4.28;;;;;;;9.44;100.00;99876.94;4940263;29;20031;-93
2023/03/13 02:49:50;;;;;;;12.27;4.85;;;;;;;9.46;100.00;99887.25;4943000;29;20035;-93
2023/03/13 02:52:22;;;;;;;12.82;4.63;;;;;;;9.53;100.00;99906.84;4940833;29;20035;-92
2023/03/13 02:54:58;;;;;;;14.23;4.82;;;;;;;9.47;100.00;99886.34;4928970;28;20070;-93
2023/03/13 02:57:23;;;;;;;12.55;4.88;;;;;;;9.54;100.00;99887.84;4925794;29;20038;-93
2023/03/13 02:59:49;;;;;;;10.50;5.25;;;;;;;9.54;100.00;99880.06;4939505;28;20043;-94
2023/03/13 03:02:20;;;;;;;13.13;5.72;;;;;;;9.61;100.00;99884.13;4942266;29;20031;-92
2023/03/13 03:04:51;;;;;;;9.35;4.40;;;;;;;9.61;100.00;99878.13;4942255;28;20027;-92
2023/03/13 03:07:17;;;;;;;14.27;5.22;;;;;;;9.73;100.00;99909.56;4923861;29;20027;-93
2023/03/13 03:09:42;;;;;;;12.07;5.00;;;;;;;9.74;100.00;99895.75;4924829;29;20027;-93
2023/03/13 03:12:13;;;;;;;14.65;5.10;;;;;;;9.66;100.00;99886.53;4941605;29;20059;-93
2023/03/13 03:14:39;;;;;;;13.60;4.95;;;;;;;9.68;100.00;99883.03;4939254;28;20616;-94
2023/03/13 03:17:10;;;;;;;14.43;5.57;;;;;;;9.81;100.00;99894.63;4939546;29;20046;-93
2023/03/13 03:19:38;;;;;;;11.93;4.75;;;;;;;9.76;100.00;99872.38;4924368;29;20042;-92
2023/03/13 03:22:06;;;;;;;8.73;4.78;;;;;;;9.76;100.00;99870.63;4923727;29;20038;-93
2023/03/13 03:24:31;;;;;;;14.38;5.05;;;;;;;9.83;100.00;99872.09;4922938;29;20058;-93
2023/03/13 03:26:59;;;;;;;11.43;4.30;;;;;;;9.82;100.00;99862.66;4940466;28;20428;-92
2023/03/13 03:29:27;;;;;;;16.15;5.10;;;;;;;9.96;100.00;99879.44;4920590;29;20038;-93
2023/03/13 03:31:56;;;;;;;10.68;5.35;;;;;;;10.01;100.00;99880.09;4938175;28;20068;-93
2023/03/13 03:34:22;;;;;;;11.98;4.72;;;;;;;10.09;100.00;99894.47;4937571;29;20019;-93
2023/03/13 03:36:50;;;;;;;10.80;4.78;;;;;;;9.99;100.00;99859.44;4938560;28;20041;-93
2023/03/13 03:39:23;;;;;;;9.88;5.10;;;;;;;10.03;100.00;99866.19;4922248;29;20031;-93
2023/03/13 03:41:52;;;;;;;12.65;4.60;;;;;;;10.00;100.00;99862.88;4922568;29;20027;-94
2023/03/13 03:44:27;;;;;;;;;;;;;;;;;;;;;
2023/03/13 03:46:53;;;;;;;9.70;5.05;;;;;;;10.12;100.00;99859.81;4938380;28;20027;-93
2023/03/13 03:49:24;;;;;;;10.65;4.93;;;;;;;10.13;100.00;99867.53;4921660;29;20031;-93
2023/03/13 03:51:52;;;;;;;10.18;5.03;;;;;;;10.15;100.00;99859.72;4922469;29;20031;-93
2023/03/13 03:54:17;;;;;;;9.65;4.90;;;;;;;10.15;100.00;99857.13;4924674;29;20023;-94
2023/03/13 03:56:45;;;;;;;10.98;4.85;;;;;;;10.25;100.00;99872.28;4941471;28;20055;-93
2023/03/13 03:59:18;;;;;;;11.07;5.05;;;;;;;10.21;100.00;99870.72;4924875;29;20050;-93
2023/03/13 04:01:49;;;;;;;9.55;5.05;;;;;;;10.27;100.00;99872.25;4941284;29;20671;-94
2023/03/13 04:04:19;;;;;;;11.32;5.45;;;;;;;10.27;100.00;99875.69;4940911;28;20039;-93
2023/03/13 04:06:45;;;;;;;10.18;5.55;;;;;;;10.24;100.00;99868.00;4939811;28;20035;-93
2023/03/13 04:09:20;;;;;;;;;;;;;;;;;;;;;
2023/03/13 04:11:46;;;;;;;13.02;4.80;;;;;;;10.26;100.00;99848.09;4942471;29;20037;-93
2023/03/13 04:14:12;;;;;;;13.38;5.47;;;;;;;10.28;100.00;99840.25;4923683;29;20031;-93
2023/03/13 04:16:37;;;;;;;11.60;5.40;;;;;;;10.37;100.00;99844.25;4923374;29;20054;-93
2023/03/13 04:19:06;;;;;;;12.27;5.60;;;;;;;10.33;100.00;99853.03;4925000;29;20027;-94
2023/03/13 04:21:39;;;;;;;11.60;5.18;;;;;;;10.36;100.00;99835.63;4929739;29;20086;-93
2023/03/13 04:24:12;;;;;;;10.73;5.78;;;;;;;10.40;100.00;99838.94;4942884;29;20039;-94
2023/03/13 04:26:38;;;;;;;9.40;5.32;;;;;;;10.53;100.00;99851.34;4928078;29;20038;-93
2023/03/13 04:29:05;;;;;;;12.65;5.90;;;;;;;10.46;100.00;99830.91;4946439;28;20023;-93
2023/03/13 04:31:32;;;;;;;13.13;6.10;;;;;;;10.45;100.00;99826.63;4943512;29;20068;-94
2023/03/13 04:33:57;;;;;;;14.20;6.60;;;;;;;10.42;100.00;99803.47;4927084;29;20023;-93
2023/03/13 04:36:26;;;;;;;12.00;6.28;;;;;;;10.46;100.00;99813.63;4944593;28;20035;-92
2023/03/13 04:38:51;;;;;;;12.63;6.15;;;;;;;10.47;100.00;99797.19;4959048;28;20067;-93
2023/03/13 04:41:20;;;;;;;13.52;6.45;;;;;;;10.50;100.00;99799.66;4943654;28;20058;-93
2023/03/13 04:43:45;;;;;;;14.20;6.40;;;;;;;10.52;100.00;99797.84;4933121;29;20038;-93
2023/03/13 04:46:11;;;;;;;10.52;5.75;;;;;;;10.45;100.00;99774.81;4946512;29;20023;-93
2023/03/13 04:48:42;;;;;;;10.75;5.72;;;;;;;10.52;100.00;99789.22;4944253;29;20034;-93
2023/03/13 04:51:07;;;;;;;12.45;5.93;;;;;;;10.47;100.00;99779.03;4926124;28;20045;-94
2023/03/13 04:53:42;;;;;;;12.70;5.45;;;;;;;10.52;100.00;99776.25;4942393;29;20534;-94
2023/03/13 04:56:10;;;;;;;;;;;;;;;10.75;100.00;99786.53;4944408;28;20043;-93
2023/03/13 04:58:43;;;;;;;11.32;5.38;;;;;;;10.69;100.00;99782.47;4946552;29;20455;-94
2023/03/13 05:01:08;;;;;;;10.98;5.20;;;;;;;10.64;100.00;99768.00;4944607;29;20035;-93
2023/03/13 05:03:34;;;;;;;12.48;5.40;;;;;;;10.68;100.00;99777.34;4946511;28;20090;-93
2023/03/13 05:06:08;;;;;;;13.32;5.40;;;;;;;10.78;100.00;99783.00;4928396;29;20035;-94
2023/03/13 05:08:35;;;;;;;9.77;4.88;;;;;;;10.77;100.00;99768.34;4944404;28;20069;-92
2023/03/13 05:11:09;;;;;;;8.95;4.78;;;;;;;10.77;100.00;99760.56;4949058;28;20019;-94
2023/03/13 05:13:42;;;;;;;11.50;5.20;;;;;;;10.80;100.00;99766.44;4933021;29;20119;-94
2023/03/13 05:16:16;;;;;;;10.23;4.53;;;;;;;10.80;100.00;99756.06;4944252;28;20091;-94
2023/03/13 05:18:52;;;;;;;11.60;5.10;;;;;;;10.90;100.00;99749.63;4931808;29;20027;-94
2023/03/13 05:21:34;;;;;;;13.32;4.75;;;;;;;10.89;100.00;99752.25;4929822;29;20042;-94
2023/03/13 05:24:28;;;;;;;9.35;4.07;;;;;;;11.04;100.00;99765.44;4945449;28;20484;-95
2023/03/13 05:27:01;;;;;;;9.63;4.53;;;;;;;11.02;100.00;99749.09;4946395;28;20031;-94
2023/03/13 05:29:41;;;;;;;9.00;4.40;;;;;;;11.06;100.00;99750.63;4970086;23;20016;-92
2023/03/13 05:34:55;;;;;;;11.48;4.22;;;;;;;11.12;100.00;99752.13;4462277;23;20060;-85
2023/03/13 05:37:21;;;;;;;10.35;4.32;;;;;;;11.18;100.00;99756.22;5077704;23;20052;-85
2023/03/13 05:42:15;;;;;;;10.38;4.32;;;;;;;11.29;100.00;99769.53;4923586;29;20055;-86
2023/03/13 05:44:41;;;;;;;7.90;4.10;;;;;;;11.26;100.00;99772.28;4925498;29;20042;-86
2023/03/13 05:47:06;;;;;;;10.40;4.30;;;;;;;11.31;100.00;99773.75;5111035;23;20063;-85
2023/03/13 05:49:35;;;;;;;9.35;4.15;;;;;;;11.25;100.00;99760.22;5075996;23;20595;-94
2023/03/13 05:54:29;;;;;;;10.23;4.30;;;;;;;11.25;100.00;99761.06;2820113;23;20052;-86
2023/03/13 05:59:53;;;;;;;11.73;4.43;;;;;;;11.25;100.00;99758.47;5119690;23;20052;-94
2023/03/13 06:02:35;;;;;;;10.00;3.85;;;;;;;11.30;100.00;99764.28;4947376;28;20036;-94
2023/03/13 06:05:25;;;;;;;9.75;4.13;;;;;;;11.36;100.00;99761.44;4934605;29;20051;-93
2023/03/13 06:08:53;;;;;;;;;;;;;;;;;;;;;
2023/03/13 06:11:41;;;;;;;8.55;3.65;;;;;;;11.55;100.00;99763.19;4945008;28;20031;-96
2023/03/13 06:14:17;;;;;;;13.88;3.88;;;;;;;11.54;100.00;99764.94;4949313;28;20035;-94
2023/03/13 06:29:10;;;;;;;11.88;3.30;;;;;;;11.67;100.00;99745.31;4757012;30;20048;-95
2023/03/13 06:56:15;;;;;;;9.60;3.38;;;;;;;11.84;100.00;99740.22;4770695;30;20064;-96
2023/03/13 06:59:37;;;;;;;9.75;3.53;;;;;;;11.84;100.00;99745.41;4769810;29;20140;-94
2023/03/13 07:03:15;;;;;;;;;;;;;;;;;;;;;
2023/03/13 07:06:38;;;;;;;10.63;3.45;;;;;;;11.99;100.00;99733.47;4773148;29;20053;-96
2023/03/13 07:09:45;;;;;;;;;;;;;;;;;;;;;
2023/03/13 07:12:38;;;;;;;7.15;3.10;;;;;;;12.07;100.00;99753.91;4778740;29;20035;-95
2023/03/13 07:15:38;;;;;;;8.55;3.10;;;;;;;12.15;100.00;99742.22;4865060;29;20044;-96
2023/03/13 07:28:32;;;;;;;;;;;;;;;;;;;;;
2023/03/13 07:31:47;;;;;;;9.05;2.83;;;;;;;12.18;100.00;99726.47;4854658;29;20029;-96
2023/03/13 07:34:42;;;;;;;;;;;;;;;;;;;;;
2023/03/13 07:40:43;;;;;;;14.27;3.17;;;;;;;12.36;100.00;99739.50;4861062;29;20073;-96
2023/03/13 07:43:32;;;;;;;11.90;3.45;;;;;;;12.40;100.00;99731.50;4849087;29;20206;-96
2023/03/13 07:49:22;;;;;;;11.55;3.45;;;;;;;12.71;100.00;99746.41;4858510;29;20522;-96
2023/03/13 07:51:53;;;;;;;9.02;2.80;;;;;;;12.59;100.00;99721.00;4858613;29;20044;-95
2023/03/13 07:54:18;;;;;;;6.68;2.78;;;;;;;12.70;100.00;99749.06;4857169;29;20491;-95
2023/03/13 07:56:47;;;;;;;11.32;3.25;;;;;;;12.59;100.00;99745.25;4842315;29;20045;-96
2023/03/13 07:59:20;;;;;;;6.68;3.17;;;;;;;12.56;100.00;99736.75;4859978;29;20026;-95
2023/03/13 08:01:45;;;;;;;8.88;2.90;;;;;;;12.56;100.00;99742.78;4926756;28;20035;-96
2023/03/13 08:04:21;;;;;;;9.43;3.10;;;;;;;12.55;100.00;99738.53;4925126;29;20093;-96
2023/03/13 08:06:47;;;;;;;7.68;2.90;;;;;;;12.54;100.00;99736.84;4942013;28;20027;-96
2023/03/13 08:09:15;;;;;;;6.93;3.10;;;;;;;12.56;100.00;99728.94;4928607;28;20035;-96
2023/03/13 08:11:43;;;;;;;9.05;3.20;;;;;;;12.89;100.00;99740.28;4933309;29;20058;-96
2023/03/13 08:14:11;;;;;;;8.52;2.92;;;;;;;13.10;100.00;99714.91;4933014;29;20023;-95
2023/03/13 08:16:51;;;;;;;11.10;2.92;;;;;;;13.38;100.00;99725.59;4935186;29;20027;-95
2023/03/13 08:19:27;;;;;;;7.80;3.15;;;;;;;13.54;100.00;99707.38;4951008;28;20114;-96
2023/03/13 08:21:53;;;;;;;7.47;2.75;;;;;;;13.85;100.00;99730.03;4928082;28;20035;-96
2023/03/13 08:24:37;;;;;;;9.93;2.97;;;;;;;13.77;100.00;99711.34;4927478;29;20023;-96
2023/03/13 08:27:02;;;;;;;9.97;3.10;;;;;;;13.72;100.00;99700.31;4941712;28;20063;-95
2023/03/13 08:29:28;;;;;;;11.52;3.25;;;;;;;13.74;100.00;99699.34;4928615;28;20031;-96
2023/03/13 08:31:56;;;;;;;5.45;2.55;;;;;;;13.75;100.00;99705.38;4942953;28;20062;-96
2023/03/13 08:34:48;;;;;;;7.68;3.33;;;;;;;13.73;100.00;99689.84;4937032;29;20032;-96
2023/03/13 08:37:19;;;;;;;8.75;3.00;;;;;;;13.72;100.00;99716.78;4950844;28;20030;-95
2023/03/13 08:39:45;;;;;;;9.70;3.10;;;;;;;13.61;100.00;99729.56;4939178;28;20039;-94
2023/03/13 08:42:43;;;;;;;9.23;2.90;;;;;;;13.35;100.00;99717.97;4929467;28;20035;-96
2023/03/13 08:45:27;;;;;;;;;;;;;;;;;;;;;
2023/03/13 08:48:24;;;;;;;;;;;;;;;13.16;100.00;99708.59;4949077;28;20042;-96
2023/03/13 08:51:29;;;;;;;10.50;2.90;;;;;;;12.89;100.00;99697.84;4931316;29;20001;-96
2023/03/13 08:54:52;;;;;;;7.25;3.35;;;;;;;12.68;100.00;99691.97;4888286;29;20044;-96
2023/03/13 08:58:05;;;;;;;10.02;2.85;;;;;;;12.53;100.00;99700.53;4859494;29;20515;-96
2023/03/13 09:00:52;;;;;;;;;;;;;;;;;;;;;
2023/03/13 09:04:02;;;;;;;11.40;3.17;;;;;;;12.36;100.00;99698.75;4886284;29;20045;-96
2023/03/13 09:07:08;;;;;;;8.02;2.75;;;;;;;12.67;100.00;99692.88;4891501;29;20043;-96
2023/03/13 09:10:23;;;;;;;6.35;2.60;;;;;;;12.99;100.00;99675.63;4931238;29;20035;-96
2023/03/13 09:13:18;;;;;;;5.20;2.33;;;;;;;13.65;100.00;99698.97;4944468;28;20459;-96
2023/03/13 09:16:45;;;;;;;5.13;2.35;;;;;;;14.01;100.00;99686.53;4966254;28;20031;-96
2023/03/13 09:20:23;;;;;;;;;;;;;;;;;;;;;
2023/03/13 09:26:57;;;;;;;6.40;2.08;;;;;;;14.36;97.79;99650.66;4950092;29;20042;-96
2023/03/13 09:35:54;;;;;;;6.68;2.60;;;;;;;14.86;96.82;99649.47;4866384;23;20051;-85
2023/03/13 09:38:20;;;;;;;5.90;2.70;;;;;;;14.86;98.24;99652.06;5049284;23;20903;-85
2023/03/13 09:40:48;;;;;;;6.70;2.60;;;;;;;14.83;97.22;99641.81;4951847;23;20386;-92
2023/03/13 09:49:50;;;;;;;5.88;2.70;;;;;;;15.22;96.48;99652.41;4930680;23;20198;-94
2023/03/13 09:52:17;;;;;;;6.20;2.63;;;;;;;15.41;94.05;99615.56;5022927;23;20051;-87
2023/03/13 09:54:49;;;;;;;8.70;2.58;;;;;;;15.71;93.13;99625.84;4969113;23;20051;-94
2023/03/13 09:57:32;;;;;;;7.53;2.63;;;;;;;15.92;91.47;99623.63;4976497;23;20063;-83
2023/03/13 10:02:34;;;;;;;5.35;2.40;;;;;;;15.96;89.26;99606.81;5053937;23;20067;-93
2023/03/13 10:08:04;;;;;;;;;;;;;;;15.77;87.53;99622.84;4821084;23;20066;-90
2023/03/13 10:10:42;;;;;;;6.03;2.20;;;;;;;15.73;87.63;99601.31;4694950;23;19969;-86
2023/03/13 10:16:44;;;;;;;4.03;1.90;;;;;;;15.56;85.80;99598.94;4541493;23;20051;-94
2023/03/13 10:19:36;;;;;;;6.90;1.92;;;;;;;15.70;87.09;99588.44;4943250;28;20035;-95
2023/03/13 10:25:37;;;;;;;5.38;2.40;;;;;;;16.14;86.44;99608.22;4935693;29;20051;-95
2023/03/13 10:28:36;;;;;;;5.22;1.90;;;;;;;16.06;84.68;99598.25;4951157;29;20051;-96
2023/03/13 10:31:49;;;;;;;3.95;2.10;;;;;;;16.31;82.91;99601.88;4897363;29;20052;-95
2023/03/13 10:35:29;;;;;;;4.60;2.17;;;;;;;16.24;79.58;99572.66;4900039;29;20040;-96
2023/03/13 10:44:43;;;;;;;2.90;1.90;;;;;;;16.39;82.62;99574.25;4873590;23;20056;-85
2023/03/13 10:47:12;;;;;;;4.35;1.95;;;;;;;16.56;77.20;99566.09;4981529;23;20142;-84
2023/03/13 10:49:50;;;;;;;5.28;1.95;;;;;;;16.64;78.46;99557.75;4944128;28;21088;-84
2023/03/13 10:55:02;;;;;;;6.72;2.00;;;;;;;16.70;76.79;99552.09;4693892;23;20296;-89
2023/03/13 10:59:54;;;;;;;4.00;1.90;;;;;;;16.97;75.72;99538.84;4935509;23;20056;-85
2023/03/13 11:02:27;;;;;;;4.25;2.00;;;;;;;17.02;77.06;99567.31;4962700;23;20055;-91
2023/03/13 11:04:54;;;;;;;5.03;1.92;;;;;;;16.83;75.22;99546.84;4925188;29;20123;-92
2023/03/13 11:12:34;;;;;;;3.90;1.83;;;;;;;16.51;77.00;99535.97;4723433;23;20145;-89
2023/03/13 11:15:10;;;;;;;4.15;2.00;;;;;;;16.42;78.81;99523.50;4863250;23;20641;-92
2023/03/13 11:17:39;;;;;;;5.28;2.25;;;;;;;16.61;79.53;99552.72;4950278;23;20038;-85
2023/03/13 11:20:14;;;;;;;4.22;2.10;;;;;;;16.63;76.89;99558.69;4959497;23;20063;-87
2023/03/13 11:28:19;;;;;;;3.70;1.50;;;;;;;16.77;75.40;99542.03;4840075;23;20069;-86
2023/03/13 11:30:53;;;;;;;5.00;2.00;;;;;;;16.89;74.65;99530.69;4978413;23;20047;-85
2023/03/13 11:33:27;;;;;;;5.75;1.88;;;;;;;16.93;74.58;99526.91;4926747;23;1136539;-85
2023/03/13 11:35:57;;;;;;;2.93;1.77;;;;;;;17.13;72.91;99520.25;4942641;29;20105;-85
2023/03/13 11:38:26;;;;;;;4.38;1.80;;;;;;;17.26;70.24;99529.72;4525154;23;20362;-86
2023/03/13 11:41:04;;;;;;;4.38;1.50;;;;;;;17.40;67.04;99501.72;4814955;23;20071;-86
2023/03/13 11:45:58;;;;;;;4.65;1.65;;;;;;;17.33;66.10;99514.44;5031158;23;20055;-85
2023/03/13 11:54:10;;;;;;;4.65;1.75;;;;;;;17.16;68.78;99501.72;4973683;23;20047;-85
2023/03/13 11:56:44;;;;;;;3.63;1.67;;;;;;;17.10;66.84;99513.47;5000485;23;20502;-85
2023/03/13 12:04:31;;;;;;;4.35;1.52;;;;;;;16.96;67.21;99480.44;4964979;23;20728;-86
2023/03/13 12:07:18;;;;;;;4.45;1.73;;;;;;;16.79;67.36;99470.31;4940979;28;20480;-86
2023/03/13 12:09:50;;;;;;;2.95;1.77;;;;;;;16.65;67.43;99461.78;4965675;23;20113;-85
2023/03/13 12:12:43;;;;;;;3.15;1.60;;;;;;;16.64;67.70;99471.41;5023265;23;20102;-86
2023/03/13 12:15:25;;;;;;;4.30;2.08;;;;;;;16.58;66.71;99466.59;4984929;23;20055;-85
2023/03/13 12:17:58;;;;;;;3.40;1.52;;;;;;;16.68;67.91;99469.41;5056735;23;20064;-85
2023/03/13 12:20:31;;;;;;;4.75;1.92;;;;;;;16.70;66.58;99470.13;4934406;23;20321;-85
2023/03/13 12:23:16;;;;;;;5.43;1.90;;;;;;;16.65;68.08;99453.94;4949054;23;20514;-86
2023/03/13 12:30:48;;;;;;;3.20;1.90;;;;;;;16.49;68.67;99475.06;4810597;23;20297;-86
2023/03/13 12:33:35;;;;;;;3.33;1.90;;;;;;;16.44;67.50;99443.16;4911246;23;20057;-86
2023/03/13 12:36:12;;;;;;;4.22;1.65;;;;;;;16.41;66.59;99448.59;4885200;29;21581;-86
2023/03/13 12:43:45;;;;;;;4.32;1.67;;;;;;;16.32;65.26;99415.25;4296166;23;20258;-88
2023/03/13 12:49:28;;;;;;;4.18;1.50;;;;;;;16.54;66.67;99413.63;1456219;23;20027;-87
2023/03/13 12:51:53;;;;;;;4.32;1.67;;;;;;;16.67;66.17;99416.22;4964816;23;20188;-86
2023/03/13 12:57:26;;;;;;;3.72;1.58;;;;;;;16.82;65.39;99411.69;5020734;23;20060;-84
2023/03/13 13:02:26;;;;;;;3.78;1.40;;;;;;;17.28;61.71;99393.44;4999273;23;20053;-86
2023/03/13 13:04:56;;;;;;;3.05;1.42;;;;;;;17.42;60.92;99397.66;4948364;23;20200;-86
2023/03/13 13:25:28;;;;;;;3.78;1.48;;;;;;;17.48;59.83;99368.38;4930381;29;20049;-96
2023/03/13 13:39:20;;;;;;;2.85;1.30;;;;;;;17.38;60.34;99370.84;4914850;29;20051;-96
2023/03/13 13:41:49;;;;;;;;;;;;;;;17.40;60.23;99368.13;4959487;23;20106;31
2023/03/13 13:44:25;;;;;;;4.85;1.30;;;;;;;17.44;59.99;99401.81;5060193;23;20020;-89
2023/03/13 13:46:52;;;;;;;4.18;1.25;;;;;;;17.50;58.72;99385.66;4930641;23;20049;-84
2023/03/13 13:49:19;;;;;;;4.53;1.40;;;;;;;17.45;59.35;99376.47;4950813;23;21549;-84
2023/03/13 13:52:00;;;;;;;7.00;1.65;;;;;;;17.38;59.37;99373.47;4944078;23;20062;-87
2023/03/13 13:54:47;;;;;;;3.42;1.48;;;;;;;17.23;59.63;99362.34;4928207;23;20060;-90
2023/03/13 13:59:42;;;;;;;5.30;1.67;;;;;;;17.34;57.73;99354.53;4992382;23;20679;-87
2023/03/13 14:07:11;;;;;;;4.07;1.50;;;;;;;17.40;58.77;99371.56;4740223;23;20519;-91
2023/03/13 14:09:49;;;;;;;3.90;1.60;;;;;;;17.19;59.60;99339.97;4904164;29;20056;-91
2023/03/13 14:12:36;;;;;;;5.75;1.80;;;;;;;17.12;61.15;99336.16;4930820;23;20029;-87
2023/03/13 14:15:23;;;;;;;3.58;1.63;;;;;;;17.20;61.72;99344.25;4978577;23;20088;-88
2023/03/13 14:17:59;;;;;;;3.30;1.35;;;;;;;17.22;61.22;99336.28;4564473;23;20421;-88
2023/03/13 14:20:31;;;;;;;6.15;1.90;;;;;;;17.20;62.03;99332.94;4489178;23;20049;-88
2023/03/13 14:25:45;;;;;;;4.72;1.48;;;;;;;17.35;62.49;99321.31;4982085;23;20469;-93
2023/03/13 14:28:22;;;;;;;5.07;1.80;;;;;;;17.33;62.63;99325.84;4953574;23;20052;-93
2023/03/13 14:30:50;;;;;;;4.00;1.52;;;;;;;17.21;61.08;99324.13;4278232;23;20249;-86
2023/03/13 14:33:16;;;;;;;5.00;1.60;;;;;;;17.08;62.00;99313.75;4885859;29;20179;-87
2023/03/13 14:38:20;;;;;;;3.60;1.58;;;;;;;16.97;64.17;99311.09;4923189;29;20063;-87
2023/03/13 14:40:48;;;;;;;;;;;;;;;17.07;63.76;99322.53;4940930;23;20059;-93
2023/03/13 14:43:21;;;;;;;5.03;1.60;;;;;;;16.96;62.25;99304.19;5014704;23;19982;-87
2023/03/13 14:45:48;;;;;;;4.60;1.60;;;;;;;16.93;63.73;99293.94;5024688;23;20034;-86
2023/03/13 14:53:26;;;;;;;3.22;1.70;;;;;;;16.79;62.18;99292.34;4933764;23;20412;-85
2023/03/13 14:56:17;;;;;;;4.70;1.83;;;;;;;16.75;62.79;99279.63;5039654;23;20144;-92
2023/03/13 14:58:44;;;;;;;6.43;1.55;;;;;;;16.63;63.66;99291.81;4919583;23;20051;-86
2023/03/13 15:03:51;;;;;;;4.05;1.40;;;;;;;16.60;64.04;99278.94;5006009;23;20079;-94
2023/03/13 15:06:19;;;;;;;4.50;1.45;;;;;;;16.61;63.02;99274.56;4885790;29;20029;-91
2023/03/13 15:13:48;;;;;;;7.80;1.58;;;;;;;16.62;64.45;99271.00;4977992;23;20514;-92
2023/03/13 15:16:18;;;;;;;4.97;1.58;;;;;;;16.87;61.54;99274.28;4805923;23;20056;-83
2023/03/13 15:18:45;;;;;;;8.48;1.60;;;;;;;16.87;62.70;99249.91;4936025;23;20063;-92
2023/03/13 15:32:35;;;;;;;4.55;1.60;;;;;;;16.36;62.60;99223.19;5599385;23;20044;-91
2023/03/13 15:35:31;;;;;;;4.30;1.60;;;;;;;16.25;62.08;99237.03;4900151;29;20128;-93
2023/03/13 15:38:23;;;;;;;3.83;1.42;;;;;;;16.20;61.57;99224.31;4917772;29;20049;-93
2023/03/13 15:40:49;;;;;;;6.05;2.00;;;;;;;16.19;61.80;99234.88;4901667;29;20023;-91
2023/03/13 15:43:17;;;;;;;5.85;1.27;;;;;;;16.00;60.96;99206.63;4884605;29;20032;-92
2023/03/13 15:45:50;;;;;;;4.80;1.65;;;;;;;16.07;61.62;99210.44;4917760;29;20071;-92
2023/03/13 15:48:20;;;;;;;6.65;1.52;;;;;;;15.90;62.27;99202.16;4902844;29;20127;-92